LBSF - SOFIA

Compiled: 18:11:58 on 20/10/2018

Latest METAR/SPECI Reports

METAR LBSF 201800Z 28008KT 9999 BKN055 13/09 Q1021 NOSIG=

Previous reports

METAR LBSF 201730Z 28007KT 9999 FEW039 BKN051 14/09 Q1021 NOSIG=
METAR LBSF 201730Z 28007KT 9999 FEW039 BKN051 14/09 Q1021 NOSIG=
METAR LBSF 201700Z 29008KT 9999 FEW036 BKN043 14/09 Q1021 NOSIG=
METAR LBSF 201630Z 30007KT 260V330 9999 SCT038 BKN069 14/09 Q1021 NOSIG=

Latest TAF report

TAF LBSF 201700Z 2018/2118 27006KT 9999 FEW040 SCT060 TEMPO 2103/2106 4000 BR TEMPO 2112/2118 5000 SHRA FEW030CB BKN040 PROB40 2113/2115 3000 TSRA SCT025CB BKN030=

Valid WARNINGS

No valid warnings for LBSF